sensor_id;sensor_type;location;lat;lon;timestamp;P1;durP1;ratioP1;P2;durP2;ratioP2
48211;SDS011;34000;48.772;9.162;2024-01-15T00:00:18;9.90;;;4.05;;
48211;SDS011;34000;48.772;9.162;2024-01-15T00:02:44;8.32;;;3.83;;
48211;SDS011;34000;48.772;9.162;2024-01-15T00:05:10;11.20;;;4.80;;
48211;SDS011;34000;48.772;9.162;2024-01-15T00:07:36;12.40;;;4.45;;
48211;SDS011;34000;48.772;9.162;2024-01-15T00:10:02;10.05;;;4.32;;
48211;SDS011;34000;48.772;9.162;2024-01-15T00:12:28;11.10;;;3.80;;
48211;SDS011;34000;48.772;9.162;2024-01-15T00:14:54;7.90;;;3.60;;
48211;SDS011;34000;48.772;9.162;2024-01-15T00:17:20;9.57;;;4.72;;
48211;SDS011;34000;48.772;9.162;2024-01-15T00:19:46;12.57;;;3.88;;
48211;SDS011;34000;48.772;9.162;2024-01-15T00:22:12;11.10;;;4.25;;
48211;SDS011;34000;48.772;9.162;2024-01-15T00:24:38;16.02;;;3.63;;
48211;SDS011;34000;48.772;9.162;2024-01-15T00:27:04;9.13;;;3.95;;
48211;SDS011;34000;48.772;9.162;2024-01-15T00:29:30;9.20;;;3.50;;
48211;SDS011;34000;48.772;9.162;2024-01-15T00:31:56;9.35;;;4.30;;
48211;SDS011;34000;48.772;9.162;2024-01-15T00:34:22;8.27;;;3.45;;
48211;SDS011;34000;48.772;9.162;2024-01-15T00:36:48;13.52;;;3.83;;
48211;SDS011;34000;48.772;9.162;2024-01-15T00:39:14;8.30;;;4.10;;
48211;SDS011;34000;48.772;9.162;2024-01-15T00:41:41;10.38;;;4.30;;
48211;SDS011;34000;48.772;9.162;2024-01-15T00:44:07;9.05;;;4.40;;
48211;SDS011;34000;48.772;9.162;2024-01-15T00:46:42;6.50;;;3.53;;
48211;SDS011;34000;48.772;9.162;2024-01-15T00:49:08;9.70;;;4.78;;
48211;SDS011;34000;48.772;9.162;2024-01-15T00:51:34;7.78;;;3.53;;
48211;SDS011;34000;48.772;9.162;2024-01-15T00:54:00;9.02;;;3.53;;
48211;SDS011;34000;48.772;9.162;2024-01-15T00:56:26;8.10;;;2.88;;
48211;SDS011;34000;48.772;9.162;2024-01-15T00:58:52;13.27;;;4.68;;
48211;SDS011;34000;48.772;9.162;2024-01-15T01:01:18;10.05;;;4.00;;
48211;SDS011;34000;48.772;9.162;2024-01-15T01:03:44;8.88;;;3.58;;
48211;SDS011;34000;48.772;9.162;2024-01-15T01:06:10;12.23;;;4.55;;
48211;SDS011;34000;48.772;9.162;2024-01-15T01:08:36;12.60;;;4.35;;
48211;SDS011;34000;48.772;9.162;2024-01-15T01:11:02;8.60;;;3.58;;
48211;SDS011;34000;48.772;9.162;2024-01-15T01:13:28;10.52;;;4.82;;
48211;SDS011;34000;48.772;9.162;2024-01-15T01:15:54;12.35;;;3.83;;
48211;SDS011;34000;48.772;9.162;2024-01-15T01:18:20;9.82;;;3.40;;
48211;SDS011;34000;48.772;9.162;2024-01-15T01:20:46;11.43;;;4.38;;
48211;SDS011;34000;48.772;9.162;2024-01-15T01:23:12;10.18;;;4.53;;
48211;SDS011;34000;48.772;9.162;2024-01-15T01:25:38;10.35;;;3.85;;
48211;SDS011;34000;48.772;9.162;2024-01-15T01:28:04;9.40;;;3.38;;
48211;SDS011;34000;48.772;9.162;2024-01-15T01:30:30;12.65;;;3.35;;
48211;SDS011;34000;48.772;9.162;2024-01-15T01:32:56;8.65;;;3.55;;
48211;SDS011;34000;48.772;9.162;2024-01-15T01:35:22;9.05;;;3.85;;
48211;SDS011;34000;48.772;9.162;2024-01-15T01:37:48;11.43;;;3.88;;
48211;SDS011;34000;48.772;9.162;2024-01-15T01:40:14;6.75;;;3.35;;
48211;SDS011;34000;48.772;9.162;2024-01-15T01:42:40;11.95;;;4.13;;
48211;SDS011;34000;48.772;9.162;2024-01-15T01:45:07;7.72;;;3.30;;
48211;SDS011;34000;48.772;9.162;2024-01-15T01:47:33;10.35;;;3.97;;
48211;SDS011;34000;48.772;9.162;2024-01-15T01:50:00;3.42;;;2.25;;
48211;SDS011;34000;48.772;9.162;2024-01-15T01:52:27;10.77;;;4.38;;
48211;SDS011;34000;48.772;9.162;2024-01-15T01:54:53;7.78;;;4.00;;
48211;SDS011;34000;48.772;9.162;2024-01-15T01:57:19;9.05;;;3.85;;
48211;SDS011;34000;48.772;9.162;2024-01-15T01:59:45;7.60;;;3.30;;
48211;SDS011;34000;48.772;9.162;2024-01-15T02:02:12;11.07;;;4.50;;
48211;SDS011;34000;48.772;9.162;2024-01-15T02:04:39;13.05;;;4.82;;
48211;SDS011;34000;48.772;9.162;2024-01-15T02:07:05;8.93;;;3.95;;
48211;SDS011;34000;48.772;9.162;2024-01-15T02:09:31;7.20;;;3.50;;
48211;SDS011;34000;48.772;9.162;2024-01-15T02:11:57;6.43;;;3.78;;
48211;SDS011;34000;48.772;9.162;2024-01-15T02:14:23;9.27;;;4.03;;
48211;SDS011;34000;48.772;9.162;2024-01-15T02:16:49;11.90;;;4.10;;
48211;SDS011;34000;48.772;9.162;2024-01-15T02:19:15;9.80;;;3.83;;
48211;SDS011;34000;48.772;9.162;2024-01-15T02:21:42;6.03;;;2.35;;
48211;SDS011;34000;48.772;9.162;2024-01-15T02:24:08;7.43;;;4.05;;
48211;SDS011;34000;48.772;9.162;2024-01-15T02:26:34;7.63;;;3.47;;
48211;SDS011;34000;48.772;9.162;2024-01-15T02:29:03;9.68;;;4.65;;
48211;SDS011;34000;48.772;9.162;2024-01-15T02:31:30;8.05;;;3.22;;
48211;SDS011;34000;48.772;9.162;2024-01-15T02:33:56;7.90;;;3.15;;
48211;SDS011;34000;48.772;9.162;2024-01-15T02:36:22;7.80;;;4.18;;
48211;SDS011;34000;48.772;9.162;2024-01-15T02:38:48;9.00;;;3.35;;
48211;SDS011;34000;48.772;9.162;2024-01-15T02:41:14;8.05;;;3.45;;
48211;SDS011;34000;48.772;9.162;2024-01-15T02:43:40;9.55;;;3.95;;
48211;SDS011;34000;48.772;9.162;2024-01-15T02:46:06;8.48;;;3.65;;
48211;SDS011;34000;48.772;9.162;2024-01-15T02:48:32;8.52;;;3.92;;
48211;SDS011;34000;48.772;9.162;2024-01-15T02:51:00;9.60;;;4.07;;
48211;SDS011;34000;48.772;9.162;2024-01-15T02:53:26;11.43;;;4.22;;
48211;SDS011;34000;48.772;9.162;2024-01-15T02:55:52;6.20;;;3.42;;
48211;SDS011;34000;48.772;9.162;2024-01-15T02:58:18;6.93;;;3.30;;
48211;SDS011;34000;48.772;9.162;2024-01-15T03:00:44;8.05;;;3.72;;
48211;SDS011;34000;48.772;9.162;2024-01-15T03:03:11;8.98;;;3.78;;
48211;SDS011;34000;48.772;9.162;2024-01-15T03:05:37;8.80;;;2.95;;
48211;SDS011;34000;48.772;9.162;2024-01-15T03:08:03;8.50;;;3.65;;
48211;SDS011;34000;48.772;9.162;2024-01-15T03:10:29;10.32;;;3.80;;
48211;SDS011;34000;48.772;9.162;2024-01-15T03:12:55;6.88;;;3.15;;
48211;SDS011;34000;48.772;9.162;2024-01-15T03:15:21;9.93;;;3.65;;
48211;SDS011;34000;48.772;9.162;2024-01-15T03:17:47;13.02;;;4.43;;
48211;SDS011;34000;48.772;9.162;2024-01-15T03:20:13;6.57;;;3.47;;
48211;SDS011;34000;48.772;9.162;2024-01-15T03:22:39;9.20;;;3.58;;
48211;SDS011;34000;48.772;9.162;2024-01-15T03:25:05;6.13;;;2.92;;
48211;SDS011;34000;48.772;9.162;2024-01-15T03:27:32;5.90;;;2.88;;
48211;SDS011;34000;48.772;9.162;2024-01-15T03:29:58;8.27;;;3.72;;
48211;SDS011;34000;48.772;9.162;2024-01-15T03:32:24;10.00;;;3.90;;
48211;SDS011;34000;48.772;9.162;2024-01-15T03:34:50;9.48;;;3.50;;
48211;SDS011;34000;48.772;9.162;2024-01-15T03:37:17;10.82;;;3.53;;
48211;SDS011;34000;48.772;9.162;2024-01-15T03:39:43;4.50;;;2.92;;
48211;SDS011;34000;48.772;9.162;2024-01-15T03:42:09;7.57;;;3.85;;
48211;SDS011;34000;48.772;9.162;2024-01-15T03:44:35;10.88;;;3.47;;
48211;SDS011;34000;48.772;9.162;2024-01-15T03:47:01;9.48;;;3.88;;
48211;SDS011;34000;48.772;9.162;2024-01-15T03:49:27;6.88;;;3.10;;
48211;SDS011;34000;48.772;9.162;2024-01-15T03:51:53;9.25;;;3.25;;
48211;SDS011;34000;48.772;9.162;2024-01-15T03:54:19;8.18;;;3.45;;
48211;SDS011;34000;48.772;9.162;2024-01-15T03:56:45;7.30;;;3.08;;
48211;SDS011;34000;48.772;9.162;2024-01-15T03:59:11;13.82;;;4.40;;
48211;SDS011;34000;48.772;9.162;2024-01-15T04:01:37;3.88;;;1.85;;
48211;SDS011;34000;48.772;9.162;2024-01-15T04:04:03;7.13;;;3.58;;
48211;SDS011;34000;48.772;9.162;2024-01-15T04:06:29;6.05;;;3.30;;
48211;SDS011;34000;48.772;9.162;2024-01-15T04:08:55;7.20;;;3.45;;
48211;SDS011;34000;48.772;9.162;2024-01-15T04:11:21;14.68;;;3.85;;
48211;SDS011;34000;48.772;9.162;2024-01-15T04:13:47;7.00;;;2.78;;
48211;SDS011;34000;48.772;9.162;2024-01-15T04:16:13;7.38;;;3.10;;
48211;SDS011;34000;48.772;9.162;2024-01-15T04:18:39;8.75;;;3.42;;
48211;SDS011;34000;48.772;9.162;2024-01-15T04:21:05;3.83;;;1.90;;
48211;SDS011;34000;48.772;9.162;2024-01-15T04:23:32;8.52;;;3.28;;
48211;SDS011;34000;48.772;9.162;2024-01-15T04:25:58;7.80;;;2.92;;
48211;SDS011;34000;48.772;9.162;2024-01-15T04:28:24;8.43;;;3.35;;
48211;SDS011;34000;48.772;9.162;2024-01-15T04:30:50;7.35;;;2.75;;
48211;SDS011;34000;48.772;9.162;2024-01-15T04:33:16;4.13;;;1.45;;
48211;SDS011;34000;48.772;9.162;2024-01-15T04:35:42;9.70;;;3.53;;
48211;SDS011;34000;48.772;9.162;2024-01-15T04:38:08;13.32;;;4.30;;
48211;SDS011;34000;48.772;9.162;2024-01-15T04:40:34;6.63;;;2.78;;
48211;SDS011;34000;48.772;9.162;2024-01-15T04:43:00;6.38;;;2.63;;
48211;SDS011;34000;48.772;9.162;2024-01-15T04:45:26;3.15;;;1.50;;
48211;SDS011;34000;48.772;9.162;2024-01-15T04:47:55;3.90;;;2.75;;
48211;SDS011;34000;48.772;9.162;2024-01-15T04:50:22;6.80;;;3.58;;
48211;SDS011;34000;48.772;9.162;2024-01-15T04:52:48;8.68;;;3.10;;
48211;SDS011;34000;48.772;9.162;2024-01-15T04:55:14;7.68;;;3.30;;
48211;SDS011;34000;48.772;9.162;2024-01-15T04:57:40;5.40;;;3.17;;
48211;SDS011;34000;48.772;9.162;2024-01-15T05:00:06;4.38;;;2.53;;
48211;SDS011;34000;48.772;9.162;2024-01-15T05:02:32;0.90;;;0.90;;
48211;SDS011;34000;48.772;9.162;2024-01-15T05:04:58;5.68;;;2.05;;
48211;SDS011;34000;48.772;9.162;2024-01-15T05:07:24;5.72;;;3.00;;
48211;SDS011;34000;48.772;9.162;2024-01-15T05:09:50;8.82;;;3.17;;
48211;SDS011;34000;48.772;9.162;2024-01-15T05:12:23;8.43;;;3.00;;
48211;SDS011;34000;48.772;9.162;2024-01-15T05:14:49;3.55;;;1.45;;
48211;SDS011;34000;48.772;9.162;2024-01-15T05:17:15;8.23;;;3.35;;
48211;SDS011;34000;48.772;9.162;2024-01-15T05:19:41;8.35;;;3.28;;
48211;SDS011;34000;48.772;9.162;2024-01-15T05:22:07;6.32;;;3.15;;
48211;SDS011;34000;48.772;9.162;2024-01-15T05:24:33;7.78;;;3.55;;
48211;SDS011;34000;48.772;9.162;2024-01-15T05:26:59;8.20;;;3.67;;
48211;SDS011;34000;48.772;9.162;2024-01-15T05:29:25;7.57;;;3.72;;
48211;SDS011;34000;48.772;9.162;2024-01-15T05:31:52;9.20;;;4.13;;
48211;SDS011;34000;48.772;9.162;2024-01-15T05:34:18;5.78;;;3.28;;
48211;SDS011;34000;48.772;9.162;2024-01-15T05:36:44;4.20;;;2.10;;
48211;SDS011;34000;48.772;9.162;2024-01-15T05:39:12;3.70;;;2.05;;
48211;SDS011;34000;48.772;9.162;2024-01-15T05:41:38;2.58;;;1.98;;
48211;SDS011;34000;48.772;9.162;2024-01-15T05:44:04;7.07;;;3.63;;
48211;SDS011;34000;48.772;9.162;2024-01-15T05:46:30;4.47;;;2.55;;
48211;SDS011;34000;48.772;9.162;2024-01-15T05:48:56;7.75;;;4.07;;
48211;SDS011;34000;48.772;9.162;2024-01-15T05:51:22;9.27;;;3.58;;
48211;SDS011;34000;48.772;9.162;2024-01-15T05:53:48;4.53;;;2.88;;
48211;SDS011;34000;48.772;9.162;2024-01-15T05:56:14;8.05;;;4.05;;
48211;SDS011;34000;48.772;9.162;2024-01-15T05:58:41;12.52;;;3.15;;
48211;SDS011;34000;48.772;9.162;2024-01-15T06:01:06;1.73;;;1.63;;
48211;SDS011;34000;48.772;9.162;2024-01-15T06:03:33;7.10;;;3.08;;
48211;SDS011;34000;48.772;9.162;2024-01-15T06:05:59;7.03;;;3.28;;
48211;SDS011;34000;48.772;9.162;2024-01-15T06:08:25;9.38;;;3.72;;
48211;SDS011;34000;48.772;9.162;2024-01-15T06:10:52;6.95;;;3.80;;
48211;SDS011;34000;48.772;9.162;2024-01-15T06:13:19;6.10;;;3.25;;
48211;SDS011;34000;48.772;9.162;2024-01-15T06:15:45;7.88;;;3.95;;
48211;SDS011;34000;48.772;9.162;2024-01-15T06:18:11;6.38;;;3.40;;
48211;SDS011;34000;48.772;9.162;2024-01-15T06:20:37;5.80;;;2.42;;
48211;SDS011;34000;48.772;9.162;2024-01-15T06:23:03;10.05;;;3.72;;
48211;SDS011;34000;48.772;9.162;2024-01-15T06:25:29;6.13;;;3.15;;
48211;SDS011;34000;48.772;9.162;2024-01-15T06:27:55;10.02;;;3.17;;
48211;SDS011;34000;48.772;9.162;2024-01-15T06:30:21;8.27;;;3.10;;
48211;SDS011;34000;48.772;9.162;2024-01-15T06:32:48;7.63;;;3.00;;
48211;SDS011;34000;48.772;9.162;2024-01-15T06:35:15;5.50;;;2.80;;
48211;SDS011;34000;48.772;9.162;2024-01-15T06:37:41;4.50;;;2.63;;
48211;SDS011;34000;48.772;9.162;2024-01-15T06:40:07;4.15;;;2.35;;
48211;SDS011;34000;48.772;9.162;2024-01-15T06:42:33;3.33;;;1.90;;
48211;SDS011;34000;48.772;9.162;2024-01-15T06:44:59;4.00;;;3.03;;
48211;SDS011;34000;48.772;9.162;2024-01-15T06:47:25;8.85;;;3.10;;
48211;SDS011;34000;48.772;9.162;2024-01-15T06:49:51;7.43;;;3.05;;
48211;SDS011;34000;48.772;9.162;2024-01-15T06:52:17;6.35;;;2.90;;
48211;SDS011;34000;48.772;9.162;2024-01-15T06:54:43;8.13;;;3.80;;
48211;SDS011;34000;48.772;9.162;2024-01-15T06:57:10;5.28;;;2.67;;
48211;SDS011;34000;48.772;9.162;2024-01-15T06:59:36;4.32;;;2.17;;
48211;SDS011;34000;48.772;9.162;2024-01-15T07:02:02;7.88;;;3.70;;
48211;SDS011;34000;48.772;9.162;2024-01-15T07:04:28;6.05;;;2.85;;
48211;SDS011;34000;48.772;9.162;2024-01-15T07:06:54;7.80;;;2.92;;
48211;SDS011;34000;48.772;9.162;2024-01-15T07:09:20;5.28;;;2.50;;
48211;SDS011;34000;48.772;9.162;2024-01-15T07:11:46;4.55;;;2.38;;
48211;SDS011;34000;48.772;9.162;2024-01-15T07:14:12;6.13;;;3.10;;
48211;SDS011;34000;48.772;9.162;2024-01-15T07:16:38;9.15;;;3.42;;
48211;SDS011;34000;48.772;9.162;2024-01-15T07:19:04;2.55;;;1.30;;
48211;SDS011;34000;48.772;9.162;2024-01-15T07:21:30;4.40;;;2.25;;
48211;SDS011;34000;48.772;9.162;2024-01-15T07:23:56;4.07;;;1.95;;
48211;SDS011;34000;48.772;9.162;2024-01-15T07:26:22;6.40;;;3.35;;
48211;SDS011;34000;48.772;9.162;2024-01-15T07:28:48;4.95;;;2.63;;
48211;SDS011;34000;48.772;9.162;2024-01-15T07:31:15;5.43;;;2.42;;
48211;SDS011;34000;48.772;9.162;2024-01-15T07:33:41;6.50;;;3.25;;
48211;SDS011;34000;48.772;9.162;2024-01-15T07:36:07;7.85;;;3.03;;
48211;SDS011;34000;48.772;9.162;2024-01-15T07:38:33;2.83;;;1.38;;
48211;SDS011;34000;48.772;9.162;2024-01-15T07:40:59;5.22;;;3.22;;
48211;SDS011;34000;48.772;9.162;2024-01-15T07:43:25;6.00;;;3.45;;
48211;SDS011;34000;48.772;9.162;2024-01-15T07:45:52;7.50;;;3.33;;
48211;SDS011;34000;48.772;9.162;2024-01-15T07:48:18;6.47;;;3.38;;
48211;SDS011;34000;48.772;9.162;2024-01-15T07:50:45;6.30;;;2.15;;
48211;SDS011;34000;48.772;9.162;2024-01-15T07:53:11;5.95;;;2.95;;
48211;SDS011;34000;48.772;9.162;2024-01-15T07:55:37;8.25;;;4.00;;
48211;SDS011;34000;48.772;9.162;2024-01-15T07:58:03;7.95;;;2.65;;
48211;SDS011;34000;48.772;9.162;2024-01-15T08:00:29;10.48;;;2.88;;
48211;SDS011;34000;48.772;9.162;2024-01-15T08:02:55;5.38;;;2.55;;
48211;SDS011;34000;48.772;9.162;2024-01-15T08:05:21;6.05;;;3.22;;
48211;SDS011;34000;48.772;9.162;2024-01-15T08:07:47;6.75;;;2.75;;
48211;SDS011;34000;48.772;9.162;2024-01-15T08:10:13;4.75;;;2.53;;
48211;SDS011;34000;48.772;9.162;2024-01-15T08:12:39;3.67;;;2.28;;
48211;SDS011;34000;48.772;9.162;2024-01-15T08:15:05;8.82;;;2.50;;
48211;SDS011;34000;48.772;9.162;2024-01-15T08:17:31;9.43;;;3.53;;
48211;SDS011;34000;48.772;9.162;2024-01-15T08:19:57;5.25;;;2.35;;
48211;SDS011;34000;48.772;9.162;2024-01-15T08:22:25;6.63;;;2.80;;
48211;SDS011;34000;48.772;9.162;2024-01-15T08:24:51;5.47;;;2.83;;
48211;SDS011;34000;48.772;9.162;2024-01-15T08:27:18;8.30;;;3.28;;
48211;SDS011;34000;48.772;9.162;2024-01-15T08:29:45;7.20;;;2.53;;
48211;SDS011;34000;48.772;9.162;2024-01-15T08:32:11;6.18;;;2.70;;
48211;SDS011;34000;48.772;9.162;2024-01-15T08:34:40;6.70;;;3.22;;
48211;SDS011;34000;48.772;9.162;2024-01-15T08:37:06;8.95;;;2.97;;
48211;SDS011;34000;48.772;9.162;2024-01-15T08:39:32;5.55;;;2.70;;
48211;SDS011;34000;48.772;9.162;2024-01-15T08:41:58;6.07;;;3.83;;
48211;SDS011;34000;48.772;9.162;2024-01-15T08:44:24;9.88;;;3.60;;
48211;SDS011;34000;48.772;9.162;2024-01-15T08:46:50;7.22;;;4.05;;
48211;SDS011;34000;48.772;9.162;2024-01-15T08:49:16;6.53;;;2.80;;
48211;SDS011;34000;48.772;9.162;2024-01-15T08:51:42;5.38;;;2.85;;
48211;SDS011;34000;48.772;9.162;2024-01-15T08:54:08;5.80;;;2.83;;
48211;SDS011;34000;48.772;9.162;2024-01-15T08:56:34;4.57;;;2.45;;
48211;SDS011;34000;48.772;9.162;2024-01-15T08:59:01;4.10;;;2.63;;
48211;SDS011;34000;48.772;9.162;2024-01-15T09:01:27;9.25;;;2.78;;
48211;SDS011;34000;48.772;9.162;2024-01-15T09:03:53;5.47;;;2.30;;
48211;SDS011;34000;48.772;9.162;2024-01-15T09:06:19;3.63;;;2.30;;
48211;SDS011;34000;48.772;9.162;2024-01-15T09:08:45;5.80;;;2.30;;
48211;SDS011;34000;48.772;9.162;2024-01-15T09:11:11;1.55;;;1.10;;
48211;SDS011;34000;48.772;9.162;2024-01-15T09:13:37;9.80;;;2.78;;
48211;SDS011;34000;48.772;9.162;2024-01-15T09:16:03;3.65;;;2.00;;
48211;SDS011;34000;48.772;9.162;2024-01-15T09:18:29;4.93;;;2.38;;
48211;SDS011;34000;48.772;9.162;2024-01-15T09:20:56;4.45;;;2.08;;
48211;SDS011;34000;48.772;9.162;2024-01-15T09:23:22;3.88;;;1.85;;
48211;SDS011;34000;48.772;9.162;2024-01-15T09:25:48;5.05;;;1.90;;
48211;SDS011;34000;48.772;9.162;2024-01-15T09:28:14;5.10;;;2.08;;
48211;SDS011;34000;48.772;9.162;2024-01-15T09:30:40;4.22;;;1.75;;
48211;SDS011;34000;48.772;9.162;2024-01-15T09:33:06;7.85;;;2.35;;
48211;SDS011;34000;48.772;9.162;2024-01-15T09:35:32;6.80;;;1.95;;
48211;SDS011;34000;48.772;9.162;2024-01-15T09:37:59;3.10;;;1.90;;
48211;SDS011;34000;48.772;9.162;2024-01-15T09:40:25;3.70;;;1.92;;
48211;SDS011;34000;48.772;9.162;2024-01-15T09:42:54;4.28;;;2.38;;
48211;SDS011;34000;48.772;9.162;2024-01-15T09:45:20;2.95;;;1.88;;
48211;SDS011;34000;48.772;9.162;2024-01-15T09:47:46;1.88;;;1.40;;
48211;SDS011;34000;48.772;9.162;2024-01-15T09:50:13;3.78;;;1.77;;
48211;SDS011;34000;48.772;9.162;2024-01-15T09:52:43;4.20;;;1.95;;
48211;SDS011;34000;48.772;9.162;2024-01-15T09:55:09;2.10;;;1.42;;
48211;SDS011;34000;48.772;9.162;2024-01-15T09:57:36;5.32;;;2.30;;
48211;SDS011;34000;48.772;9.162;2024-01-15T10:00:03;3.00;;;1.83;;
48211;SDS011;34000;48.772;9.162;2024-01-15T10:02:30;6.07;;;2.55;;
48211;SDS011;34000;48.772;9.162;2024-01-15T10:04:56;3.75;;;1.73;;
48211;SDS011;34000;48.772;9.162;2024-01-15T10:07:22;4.15;;;1.92;;
48211;SDS011;34000;48.772;9.162;2024-01-15T10:09:49;5.45;;;2.33;;
48211;SDS011;34000;48.772;9.162;2024-01-15T10:12:15;3.88;;;2.17;;
48211;SDS011;34000;48.772;9.162;2024-01-15T10:14:41;4.13;;;1.98;;
48211;SDS011;34000;48.772;9.162;2024-01-15T10:17:11;5.18;;;2.05;;
48211;SDS011;34000;48.772;9.162;2024-01-15T10:19:39;3.85;;;1.65;;
48211;SDS011;34000;48.772;9.162;2024-01-15T10:22:06;2.15;;;1.65;;
48211;SDS011;34000;48.772;9.162;2024-01-15T10:24:34;7.22;;;1.80;;
48211;SDS011;34000;48.772;9.162;2024-01-15T10:27:09;1.88;;;1.65;;
48211;SDS011;34000;48.772;9.162;2024-01-15T10:29:36;4.07;;;2.35;;
48211;SDS011;34000;48.772;9.162;2024-01-15T10:32:02;2.75;;;1.80;;
48211;SDS011;34000;48.772;9.162;2024-01-15T10:34:30;5.30;;;1.73;;
48211;SDS011;34000;48.772;9.162;2024-01-15T10:36:56;2.17;;;1.50;;
48211;SDS011;34000;48.772;9.162;2024-01-15T10:39:22;8.63;;;2.03;;
48211;SDS011;34000;48.772;9.162;2024-01-15T10:41:49;5.50;;;2.00;;
48211;SDS011;34000;48.772;9.162;2024-01-15T10:44:16;2.97;;;1.85;;
48211;SDS011;34000;48.772;9.162;2024-01-15T10:46:42;4.65;;;2.03;;
48211;SDS011;34000;48.772;9.162;2024-01-15T10:49:09;3.60;;;1.75;;
48211;SDS011;34000;48.772;9.162;2024-01-15T10:51:36;4.65;;;1.77;;
48211;SDS011;34000;48.772;9.162;2024-01-15T10:54:02;3.53;;;1.33;;
48211;SDS011;34000;48.772;9.162;2024-01-15T10:56:29;3.25;;;1.60;;
48211;SDS011;34000;48.772;9.162;2024-01-15T10:58:55;2.45;;;1.52;;
48211;SDS011;34000;48.772;9.162;2024-01-15T11:01:21;4.00;;;2.13;;
48211;SDS011;34000;48.772;9.162;2024-01-15T11:03:48;5.85;;;2.20;;
48211;SDS011;34000;48.772;9.162;2024-01-15T11:06:17;4.88;;;2.22;;
48211;SDS011;34000;48.772;9.162;2024-01-15T11:11:12;5.30;;;1.65;;
48211;SDS011;34000;48.772;9.162;2024-01-15T11:16:05;2.85;;;1.48;;
48211;SDS011;34000;48.772;9.162;2024-01-15T11:18:34;7.75;;;2.83;;
48211;SDS011;34000;48.772;9.162;2024-01-15T11:23:42;2.83;;;1.67;;
48211;SDS011;34000;48.772;9.162;2024-01-15T11:28:56;2.22;;;1.63;;
48211;SDS011;34000;48.772;9.162;2024-01-15T11:32:06;4.50;;;1.75;;
48211;SDS011;34000;48.772;9.162;2024-01-15T11:34:13;2.67;;;1.55;;
48211;SDS011;34000;48.772;9.162;2024-01-15T11:39:39;3.28;;;2.13;;
48211;SDS011;34000;48.772;9.162;2024-01-15T11:42:07;5.70;;;2.38;;
48211;SDS011;34000;48.772;9.162;2024-01-15T11:44:33;3.13;;;1.88;;
48211;SDS011;34000;48.772;9.162;2024-01-15T11:47:00;5.40;;;2.75;;
48211;SDS011;34000;48.772;9.162;2024-01-15T11:52:06;5.25;;;2.42;;
48211;SDS011;34000;48.772;9.162;2024-01-15T11:54:36;8.73;;;2.72;;
48211;SDS011;34000;48.772;9.162;2024-01-15T11:57:04;3.17;;;1.95;;
48211;SDS011;34000;48.772;9.162;2024-01-15T11:59:34;5.07;;;2.42;;
48211;SDS011;34000;48.772;9.162;2024-01-15T12:02:00;4.55;;;2.63;;
48211;SDS011;34000;48.772;9.162;2024-01-15T12:04:26;7.47;;;2.22;;
48211;SDS011;34000;48.772;9.162;2024-01-15T12:06:52;9.20;;;2.63;;
48211;SDS011;34000;48.772;9.162;2024-01-15T12:09:21;4.93;;;2.20;;
48211;SDS011;34000;48.772;9.162;2024-01-15T12:11:59;3.85;;;2.17;;
48211;SDS011;34000;48.772;9.162;2024-01-15T12:14:30;6.47;;;2.08;;
48211;SDS011;34000;48.772;9.162;2024-01-15T12:16:56;5.20;;;2.28;;
48211;SDS011;34000;48.772;9.162;2024-01-15T12:19:22;6.93;;;1.90;;
48211;SDS011;34000;48.772;9.162;2024-01-15T12:21:50;3.13;;;1.80;;
48211;SDS011;34000;48.772;9.162;2024-01-15T12:24:16;6.50;;;2.55;;
48211;SDS011;34000;48.772;9.162;2024-01-15T12:26:42;3.85;;;2.50;;
48211;SDS011;34000;48.772;9.162;2024-01-15T12:29:10;2.90;;;1.75;;
48211;SDS011;34000;48.772;9.162;2024-01-15T12:31:36;1.52;;;1.42;;
48211;SDS011;34000;48.772;9.162;2024-01-15T12:34:02;1.98;;;1.63;;
48211;SDS011;34000;48.772;9.162;2024-01-15T12:36:31;3.65;;;1.92;;
48211;SDS011;34000;48.772;9.162;2024-01-15T12:39:00;3.85;;;1.92;;
48211;SDS011;34000;48.772;9.162;2024-01-15T12:41:26;4.57;;;2.30;;
48211;SDS011;34000;48.772;9.162;2024-01-15T12:43:52;5.68;;;1.90;;
48211;SDS011;34000;48.772;9.162;2024-01-15T12:46:18;4.47;;;2.30;;
48211;SDS011;34000;48.772;9.162;2024-01-15T12:48:44;2.95;;;1.77;;
48211;SDS011;34000;48.772;9.162;2024-01-15T12:51:10;4.60;;;2.22;;
48211;SDS011;34000;48.772;9.162;2024-01-15T12:53:36;1.80;;;1.58;;
48211;SDS011;34000;48.772;9.162;2024-01-15T12:56:03;4.78;;;2.25;;
48211;SDS011;34000;48.772;9.162;2024-01-15T12:58:29;5.10;;;1.92;;
48211;SDS011;34000;48.772;9.162;2024-01-15T13:00:55;4.00;;;2.30;;
48211;SDS011;34000;48.772;9.162;2024-01-15T13:03:22;4.40;;;1.50;;
48211;SDS011;34000;48.772;9.162;2024-01-15T13:05:48;1.63;;;1.20;;
48211;SDS011;34000;48.772;9.162;2024-01-15T13:08:14;4.68;;;2.05;;
48211;SDS011;34000;48.772;9.162;2024-01-15T13:10:40;0.85;;;0.85;;
48211;SDS011;34000;48.772;9.162;2024-01-15T13:13:07;4.50;;;2.10;;
48211;SDS011;34000;48.772;9.162;2024-01-15T13:15:33;3.47;;;2.30;;
48211;SDS011;34000;48.772;9.162;2024-01-15T13:17:59;2.22;;;1.45;;
48211;SDS011;34000;48.772;9.162;2024-01-15T13:20:25;1.85;;;1.10;;
48211;SDS011;34000;48.772;9.162;2024-01-15T13:22:51;2.28;;;1.52;;
48211;SDS011;34000;48.772;9.162;2024-01-15T13:25:17;3.35;;;1.67;;
48211;SDS011;34000;48.772;9.162;2024-01-15T13:27:43;5.93;;;2.03;;
48211;SDS011;34000;48.772;9.162;2024-01-15T13:30:10;3.67;;;1.75;;
48211;SDS011;34000;48.772;9.162;2024-01-15T13:32:37;2.45;;;1.20;;
48211;SDS011;34000;48.772;9.162;2024-01-15T13:35:03;2.00;;;1.50;;
48211;SDS011;34000;48.772;9.162;2024-01-15T13:37:34;4.57;;;2.08;;
48211;SDS011;34000;48.772;9.162;2024-01-15T13:40:02;4.25;;;1.50;;
48211;SDS011;34000;48.772;9.162;2024-01-15T13:42:28;2.03;;;1.40;;
48211;SDS011;34000;48.772;9.162;2024-01-15T13:44:54;4.65;;;1.92;;
48211;SDS011;34000;48.772;9.162;2024-01-15T13:47:20;2.42;;;1.35;;
48211;SDS011;34000;48.772;9.162;2024-01-15T13:49:46;2.88;;;1.42;;
48211;SDS011;34000;48.772;9.162;2024-01-15T13:52:12;1.45;;;1.17;;
48211;SDS011;34000;48.772;9.162;2024-01-15T13:54:38;2.70;;;1.25;;
48211;SDS011;34000;48.772;9.162;2024-01-15T13:57:04;5.10;;;2.15;;
48211;SDS011;34000;48.772;9.162;2024-01-15T13:59:31;3.22;;;1.38;;
48211;SDS011;34000;48.772;9.162;2024-01-15T14:01:57;4.85;;;1.67;;
48211;SDS011;34000;48.772;9.162;2024-01-15T14:04:23;4.28;;;1.90;;
48211;SDS011;34000;48.772;9.162;2024-01-15T14:06:49;1.83;;;1.42;;
48211;SDS011;34000;48.772;9.162;2024-01-15T14:09:15;2.45;;;1.33;;
48211;SDS011;34000;48.772;9.162;2024-01-15T14:11:41;2.25;;;1.65;;
48211;SDS011;34000;48.772;9.162;2024-01-15T14:14:07;1.95;;;1.50;;
48211;SDS011;34000;48.772;9.162;2024-01-15T14:16:34;3.17;;;1.63;;
48211;SDS011;34000;48.772;9.162;2024-01-15T14:19:00;1.65;;;0.82;;
48211;SDS011;34000;48.772;9.162;2024-01-15T14:21:27;2.67;;;1.70;;
48211;SDS011;34000;48.772;9.162;2024-01-15T14:23:53;4.68;;;1.58;;
48211;SDS011;34000;48.772;9.162;2024-01-15T14:26:19;2.03;;;1.45;;
48211;SDS011;34000;48.772;9.162;2024-01-15T14:28:45;3.83;;;1.63;;
48211;SDS011;34000;48.772;9.162;2024-01-15T14:31:12;1.65;;;1.25;;
48211;SDS011;34000;48.772;9.162;2024-01-15T14:33:38;1.30;;;1.20;;
48211;SDS011;34000;48.772;9.162;2024-01-15T14:36:04;2.58;;;1.30;;
48211;SDS011;34000;48.772;9.162;2024-01-15T14:38:30;1.25;;;1.13;;
48211;SDS011;34000;48.772;9.162;2024-01-15T14:40:56;1.60;;;1.30;;
48211;SDS011;34000;48.772;9.162;2024-01-15T14:43:22;3.45;;;1.77;;
48211;SDS011;34000;48.772;9.162;2024-01-15T14:45:48;3.58;;;1.23;;
48211;SDS011;34000;48.772;9.162;2024-01-15T14:48:14;4.45;;;1.58;;
48211;SDS011;34000;48.772;9.162;2024-01-15T14:50:40;1.67;;;1.30;;
48211;SDS011;34000;48.772;9.162;2024-01-15T14:53:06;2.38;;;1.67;;
48211;SDS011;34000;48.772;9.162;2024-01-15T14:55:32;4.40;;;1.95;;